sensor_id;sensor_type;location;lat;lon;timestamp;temperature;humidity
15900;DHT22;8048;50.644;6.184;2023-11-21T00:00:44;8.30;99.90
15900;DHT22;8048;50.644;6.184;2023-11-21T00:03:11;8.30;99.90
15900;DHT22;8048;50.644;6.184;2023-11-21T00:05:40;8.30;99.90
15900;DHT22;8048;50.644;6.184;2023-11-21T00:08:07;8.30;99.90
15900;DHT22;8048;50.644;6.184;2023-11-21T00:10:32;8.30;99.90
15900;DHT22;8048;50.644;6.184;2023-11-21T00:12:58;8.30;99.90
15900;DHT22;8048;50.644;6.184;2023-11-21T00:15:24;8.30;99.90
15900;DHT22;8048;50.644;6.184;2023-11-21T00:17:49;8.30;99.90
15900;DHT22;8048;50.644;6.184;2023-11-21T00:20:15;8.30;99.90
15900;DHT22;8048;50.644;6.184;2023-11-21T00:22:40;8.30;99.90
15900;DHT22;8048;50.644;6.184;2023-11-21T00:25:07;8.30;99.90
15900;DHT22;8048;50.644;6.184;2023-11-21T00:27:37;8.30;99.90
15900;DHT22;8048;50.644;6.184;2023-11-21T00:30:03;8.30;99.90
15900;DHT22;8048;50.644;6.184;2023-11-21T00:32:32;8.30;99.90
15900;DHT22;8048;50.644;6.184;2023-11-21T00:34:58;8.30;99.90
15900;DHT22;8048;50.644;6.184;2023-11-21T00:37:24;8.30;99.90
15900;DHT22;8048;50.644;6.184;2023-11-21T00:39:50;8.30;99.90
15900;DHT22;8048;50.644;6.184;2023-11-21T00:42:15;8.30;99.90
15900;DHT22;8048;50.644;6.184;2023-11-21T00:44:41;8.30;99.90
15900;DHT22;8048;50.644;6.184;2023-11-21T00:47:07;8.30;99.90
15900;DHT22;8048;50.644;6.184;2023-11-21T00:49:33;8.30;99.90
15900;DHT22;8048;50.644;6.184;2023-11-21T00:51:59;8.30;99.90
15900;DHT22;8048;50.644;6.184;2023-11-21T00:54:24;8.30;99.90
15900;DHT22;8048;50.644;6.184;2023-11-21T00:56:50;8.20;99.90
15900;DHT22;8048;50.644;6.184;2023-11-21T00:59:15;8.20;99.90
15900;DHT22;8048;50.644;6.184;2023-11-21T01:01:41;8.20;99.90
15900;DHT22;8048;50.644;6.184;2023-11-21T01:04:06;8.30;99.90
15900;DHT22;8048;50.644;6.184;2023-11-21T01:06:33;8.20;99.90
15900;DHT22;8048;50.644;6.184;2023-11-21T01:08:58;8.30;99.90
15900;DHT22;8048;50.644;6.184;2023-11-21T01:11:24;8.20;99.90
15900;DHT22;8048;50.644;6.184;2023-11-21T01:13:49;8.20;99.90
15900;DHT22;8048;50.644;6.184;2023-11-21T01:16:15;8.20;99.90
15900;DHT22;8048;50.644;6.184;2023-11-21T01:18:40;8.20;99.90
15900;DHT22;8048;50.644;6.184;2023-11-21T01:21:06;8.20;99.90
15900;DHT22;8048;50.644;6.184;2023-11-21T01:23:32;8.20;99.90
15900;DHT22;8048;50.644;6.184;2023-11-21T01:25:58;8.20;99.90
15900;DHT22;8048;50.644;6.184;2023-11-21T01:28:23;8.20;99.90
15900;DHT22;8048;50.644;6.184;2023-11-21T01:30:49;8.20;99.90
15900;DHT22;8048;50.644;6.184;2023-11-21T01:33:15;8.10;99.90
15900;DHT22;8048;50.644;6.184;2023-11-21T01:35:44;8.20;99.90
15900;DHT22;8048;50.644;6.184;2023-11-21T01:38:11;8.20;99.90
15900;DHT22;8048;50.644;6.184;2023-11-21T01:40:36;8.20;99.90
15900;DHT22;8048;50.644;6.184;2023-11-21T01:43:02;8.20;99.90
15900;DHT22;8048;50.644;6.184;2023-11-21T01:45:29;8.10;99.90
15900;DHT22;8048;50.644;6.184;2023-11-21T01:47:56;8.10;99.90
15900;DHT22;8048;50.644;6.184;2023-11-21T01:50:22;8.10;99.90
15900;DHT22;8048;50.644;6.184;2023-11-21T01:52:48;8.10;99.90
15900;DHT22;8048;50.644;6.184;2023-11-21T01:55:16;8.10;99.90
15900;DHT22;8048;50.644;6.184;2023-11-21T01:57:46;8.10;99.90
15900;DHT22;8048;50.644;6.184;2023-11-21T02:00:12;8.10;99.90
15900;DHT22;8048;50.644;6.184;2023-11-21T02:02:45;8.10;99.90
15900;DHT22;8048;50.644;6.184;2023-11-21T02:05:13;8.10;99.90
15900;DHT22;8048;50.644;6.184;2023-11-21T02:07:39;8.10;99.90
15900;DHT22;8048;50.644;6.184;2023-11-21T02:10:07;8.10;99.90
15900;DHT22;8048;50.644;6.184;2023-11-21T02:12:33;8.10;99.90
15900;DHT22;8048;50.644;6.184;2023-11-21T02:15:03;8.10;99.90
15900;DHT22;8048;50.644;6.184;2023-11-21T02:17:37;8.00;99.90
15900;DHT22;8048;50.644;6.184;2023-11-21T02:20:03;8.00;99.90
15900;DHT22;8048;50.644;6.184;2023-11-21T02:22:31;8.00;99.90
15900;DHT22;8048;50.644;6.184;2023-11-21T02:24:58;8.00;99.90
15900;DHT22;8048;50.644;6.184;2023-11-21T02:27:24;8.00;99.90
15900;DHT22;8048;50.644;6.184;2023-11-21T02:29:50;8.00;99.90
15900;DHT22;8048;50.644;6.184;2023-11-21T02:32:16;8.00;99.90
15900;DHT22;8048;50.644;6.184;2023-11-21T02:34:44;8.00;99.90
15900;DHT22;8048;50.644;6.184;2023-11-21T02:37:10;8.00;99.90
15900;DHT22;8048;50.644;6.184;2023-11-21T02:39:35;8.00;99.90
15900;DHT22;8048;50.644;6.184;2023-11-21T02:42:01;8.00;99.90
15900;DHT22;8048;50.644;6.184;2023-11-21T02:44:27;8.00;99.90
15900;DHT22;8048;50.644;6.184;2023-11-21T02:46:52;8.00;99.90
15900;DHT22;8048;50.644;6.184;2023-11-21T02:49:18;8.00;99.90
15900;DHT22;8048;50.644;6.184;2023-11-21T02:51:43;8.00;99.90
15900;DHT22;8048;50.644;6.184;2023-11-21T02:54:09;8.00;99.90
15900;DHT22;8048;50.644;6.184;2023-11-21T02:56:35;8.00;99.90
15900;DHT22;8048;50.644;6.184;2023-11-21T02:59:01;8.00;99.90
15900;DHT22;8048;50.644;6.184;2023-11-21T03:01:26;8.00;99.90
15900;DHT22;8048;50.644;6.184;2023-11-21T03:03:53;8.00;99.90
15900;DHT22;8048;50.644;6.184;2023-11-21T03:06:22;8.00;99.90
15900;DHT22;8048;50.644;6.184;2023-11-21T03:08:48;8.00;99.90
15900;DHT22;8048;50.644;6.184;2023-11-21T03:11:14;7.90;99.90
15900;DHT22;8048;50.644;6.184;2023-11-21T03:13:40;7.90;99.90
15900;DHT22;8048;50.644;6.184;2023-11-21T03:16:08;7.90;99.90
15900;DHT22;8048;50.644;6.184;2023-11-21T03:18:34;7.90;99.90
15900;DHT22;8048;50.644;6.184;2023-11-21T03:21:00;7.90;99.90
15900;DHT22;8048;50.644;6.184;2023-11-21T03:23:25;7.90;99.90
15900;DHT22;8048;50.644;6.184;2023-11-21T03:25:51;7.90;99.90
15900;DHT22;8048;50.644;6.184;2023-11-21T03:28:16;7.90;99.90
15900;DHT22;8048;50.644;6.184;2023-11-21T03:30:42;7.90;99.90
15900;DHT22;8048;50.644;6.184;2023-11-21T03:33:07;7.90;99.90
15900;DHT22;8048;50.644;6.184;2023-11-21T03:35:33;7.90;99.90
15900;DHT22;8048;50.644;6.184;2023-11-21T03:37:58;7.90;99.90
15900;DHT22;8048;50.644;6.184;2023-11-21T03:40:24;7.90;99.90
15900;DHT22;8048;50.644;6.184;2023-11-21T03:42:49;7.90;99.90
15900;DHT22;8048;50.644;6.184;2023-11-21T03:45:15;7.90;99.90
15900;DHT22;8048;50.644;6.184;2023-11-21T03:47:41;7.90;99.90
15900;DHT22;8048;50.644;6.184;2023-11-21T03:50:07;7.90;99.90
15900;DHT22;8048;50.644;6.184;2023-11-21T03:52:34;7.90;99.90
15900;DHT22;8048;50.644;6.184;2023-11-21T03:55:01;7.90;99.90
15900;DHT22;8048;50.644;6.184;2023-11-21T03:57:26;7.90;99.90
15900;DHT22;8048;50.644;6.184;2023-11-21T03:59:53;7.90;99.90
15900;DHT22;8048;50.644;6.184;2023-11-21T04:02:19;7.90;99.90
15900;DHT22;8048;50.644;6.184;2023-11-21T04:04:44;7.90;99.90
15900;DHT22;8048;50.644;6.184;2023-11-21T04:07:10;7.90;99.90
15900;DHT22;8048;50.644;6.184;2023-11-21T04:09:36;7.90;99.90
15900;DHT22;8048;50.644;6.184;2023-11-21T04:12:02;7.80;99.90
15900;DHT22;8048;50.644;6.184;2023-11-21T04:14:27;7.80;99.90
15900;DHT22;8048;50.644;6.184;2023-11-21T04:16:53;7.80;99.90
15900;DHT22;8048;50.644;6.184;2023-11-21T04:19:19;7.70;99.90
15900;DHT22;8048;50.644;6.184;2023-11-21T04:21:44;7.70;99.90
15900;DHT22;8048;50.644;6.184;2023-11-21T04:24:10;7.70;99.90
15900;DHT22;8048;50.644;6.184;2023-11-21T04:26:36;7.70;99.90
15900;DHT22;8048;50.644;6.184;2023-11-21T04:29:01;7.70;99.90
15900;DHT22;8048;50.644;6.184;2023-11-21T04:31:27;7.70;99.90
15900;DHT22;8048;50.644;6.184;2023-11-21T04:33:52;7.70;99.90
15900;DHT22;8048;50.644;6.184;2023-11-21T04:36:18;7.70;99.90
15900;DHT22;8048;50.644;6.184;2023-11-21T04:38:45;7.70;99.90
15900;DHT22;8048;50.644;6.184;2023-11-21T04:41:11;7.70;99.90
15900;DHT22;8048;50.644;6.184;2023-11-21T04:43:37;7.70;99.90
15900;DHT22;8048;50.644;6.184;2023-11-21T04:46:02;7.70;99.90
15900;DHT22;8048;50.644;6.184;2023-11-21T04:48:28;7.60;99.90
15900;DHT22;8048;50.644;6.184;2023-11-21T04:50:54;7.70;99.90
15900;DHT22;8048;50.644;6.184;2023-11-21T04:53:19;7.70;99.90
15900;DHT22;8048;50.644;6.184;2023-11-21T04:55:45;7.60;99.90
15900;DHT22;8048;50.644;6.184;2023-11-21T04:58:11;7.60;99.90
15900;DHT22;8048;50.644;6.184;2023-11-21T05:00:37;7.60;99.90
15900;DHT22;8048;50.644;6.184;2023-11-21T05:03:03;7.60;99.90
15900;DHT22;8048;50.644;6.184;2023-11-21T05:05:29;7.60;99.90
15900;DHT22;8048;50.644;6.184;2023-11-21T05:07:55;7.60;99.90
15900;DHT22;8048;50.644;6.184;2023-11-21T05:10:21;7.60;99.90
15900;DHT22;8048;50.644;6.184;2023-11-21T05:12:47;7.60;99.90
15900;DHT22;8048;50.644;6.184;2023-11-21T05:15:16;7.60;99.90
15900;DHT22;8048;50.644;6.184;2023-11-21T05:17:43;7.60;99.90
15900;DHT22;8048;50.644;6.184;2023-11-21T05:20:10;7.60;99.90
15900;DHT22;8048;50.644;6.184;2023-11-21T05:22:36;7.60;99.90
15900;DHT22;8048;50.644;6.184;2023-11-21T05:25:02;7.60;99.90
15900;DHT22;8048;50.644;6.184;2023-11-21T05:27:29;7.60;99.90
15900;DHT22;8048;50.644;6.184;2023-11-21T05:29:56;7.60;99.90
15900;DHT22;8048;50.644;6.184;2023-11-21T05:32:23;7.60;99.90
15900;DHT22;8048;50.644;6.184;2023-11-21T05:34:49;7.60;99.90
15900;DHT22;8048;50.644;6.184;2023-11-21T05:37:14;7.60;99.90
15900;DHT22;8048;50.644;6.184;2023-11-21T05:39:40;7.60;99.90
15900;DHT22;8048;50.644;6.184;2023-11-21T05:42:05;7.50;99.90
15900;DHT22;8048;50.644;6.184;2023-11-21T05:44:31;7.50;99.90
15900;DHT22;8048;50.644;6.184;2023-11-21T05:46:57;7.50;99.90
15900;DHT22;8048;50.644;6.184;2023-11-21T05:49:24;7.50;99.90
15900;DHT22;8048;50.644;6.184;2023-11-21T05:51:53;7.50;99.90
15900;DHT22;8048;50.644;6.184;2023-11-21T05:54:19;7.60;99.90
15900;DHT22;8048;50.644;6.184;2023-11-21T05:56:45;7.60;99.90
15900;DHT22;8048;50.644;6.184;2023-11-21T05:59:10;7.60;99.90
15900;DHT22;8048;50.644;6.184;2023-11-21T06:01:36;7.60;99.90
15900;DHT22;8048;50.644;6.184;2023-11-21T06:04:04;7.60;99.90
15900;DHT22;8048;50.644;6.184;2023-11-21T06:06:30;7.70;99.90
15900;DHT22;8048;50.644;6.184;2023-11-21T06:08:56;7.70;99.90
15900;DHT22;8048;50.644;6.184;2023-11-21T06:11:22;7.60;99.90
15900;DHT22;8048;50.644;6.184;2023-11-21T06:13:48;7.60;99.90
15900;DHT22;8048;50.644;6.184;2023-11-21T06:16:14;7.60;99.90
15900;DHT22;8048;50.644;6.184;2023-11-21T06:18:44;7.60;99.90
15900;DHT22;8048;50.644;6.184;2023-11-21T06:21:10;7.60;99.90
15900;DHT22;8048;50.644;6.184;2023-11-21T06:23:36;7.60;99.90
15900;DHT22;8048;50.644;6.184;2023-11-21T06:26:01;7.60;99.90
15900;DHT22;8048;50.644;6.184;2023-11-21T06:28:27;7.60;99.90
15900;DHT22;8048;50.644;6.184;2023-11-21T06:30:52;7.50;99.90
15900;DHT22;8048;50.644;6.184;2023-11-21T06:33:18;7.50;99.90
15900;DHT22;8048;50.644;6.184;2023-11-21T06:35:44;7.50;99.90
15900;DHT22;8048;50.644;6.184;2023-11-21T06:38:10;7.50;99.90
15900;DHT22;8048;50.644;6.184;2023-11-21T06:40:35;7.50;99.90
15900;DHT22;8048;50.644;6.184;2023-11-21T06:43:01;7.50;99.90
15900;DHT22;8048;50.644;6.184;2023-11-21T06:45:27;7.50;99.90
15900;DHT22;8048;50.644;6.184;2023-11-21T06:47:53;7.50;99.90
15900;DHT22;8048;50.644;6.184;2023-11-21T06:50:18;7.50;99.90
15900;DHT22;8048;50.644;6.184;2023-11-21T06:52:44;7.50;99.90
15900;DHT22;8048;50.644;6.184;2023-11-21T06:55:09;7.50;99.90
15900;DHT22;8048;50.644;6.184;2023-11-21T06:57:35;7.50;99.90
15900;DHT22;8048;50.644;6.184;2023-11-21T07:00:01;7.60;99.90
15900;DHT22;8048;50.644;6.184;2023-11-21T07:02:27;7.50;99.90
15900;DHT22;8048;50.644;6.184;2023-11-21T07:04:53;7.50;99.90
15900;DHT22;8048;50.644;6.184;2023-11-21T07:07:19;7.50;99.90
15900;DHT22;8048;50.644;6.184;2023-11-21T07:09:44;7.50;99.90
15900;DHT22;8048;50.644;6.184;2023-11-21T07:12:10;7.50;99.90
15900;DHT22;8048;50.644;6.184;2023-11-21T07:14:36;7.50;99.90
15900;DHT22;8048;50.644;6.184;2023-11-21T07:17:04;7.50;99.90
15900;DHT22;8048;50.644;6.184;2023-11-21T07:19:30;7.50;99.90
15900;DHT22;8048;50.644;6.184;2023-11-21T07:21:56;7.50;99.90
15900;DHT22;8048;50.644;6.184;2023-11-21T07:24:22;7.50;99.90
15900;DHT22;8048;50.644;6.184;2023-11-21T07:26:48;7.50;99.90
15900;DHT22;8048;50.644;6.184;2023-11-21T07:29:14;7.50;99.90
15900;DHT22;8048;50.644;6.184;2023-11-21T07:31:40;7.50;99.90
15900;DHT22;8048;50.644;6.184;2023-11-21T07:34:06;7.60;99.90
15900;DHT22;8048;50.644;6.184;2023-11-21T07:36:33;7.50;99.90
15900;DHT22;8048;50.644;6.184;2023-11-21T07:38:59;7.60;99.90
15900;DHT22;8048;50.644;6.184;2023-11-21T07:41:24;7.60;99.90
15900;DHT22;8048;50.644;6.184;2023-11-21T07:43:50;7.60;99.90
15900;DHT22;8048;50.644;6.184;2023-11-21T07:46:15;7.60;99.90
15900;DHT22;8048;50.644;6.184;2023-11-21T07:48:42;7.70;99.90
15900;DHT22;8048;50.644;6.184;2023-11-21T07:51:08;7.70;99.90
15900;DHT22;8048;50.644;6.184;2023-11-21T07:53:34;7.70;99.90
15900;DHT22;8048;50.644;6.184;2023-11-21T07:56:04;7.70;99.90
15900;DHT22;8048;50.644;6.184;2023-11-21T07:58:30;7.70;99.90
15900;DHT22;8048;50.644;6.184;2023-11-21T08:00:56;7.70;99.90
15900;DHT22;8048;50.644;6.184;2023-11-21T08:03:22;7.80;99.90
15900;DHT22;8048;50.644;6.184;2023-11-21T08:05:47;7.80;99.90
15900;DHT22;8048;50.644;6.184;2023-11-21T08:08:13;7.80;99.90
15900;DHT22;8048;50.644;6.184;2023-11-21T08:10:39;7.80;99.90
15900;DHT22;8048;50.644;6.184;2023-11-21T08:13:05;7.90;99.90
15900;DHT22;8048;50.644;6.184;2023-11-21T08:15:30;7.90;99.90
15900;DHT22;8048;50.644;6.184;2023-11-21T08:17:59;7.90;99.90
15900;DHT22;8048;50.644;6.184;2023-11-21T08:20:25;7.90;99.90
15900;DHT22;8048;50.644;6.184;2023-11-21T08:22:50;8.00;99.90
15900;DHT22;8048;50.644;6.184;2023-11-21T08:25:18;8.00;99.90
15900;DHT22;8048;50.644;6.184;2023-11-21T08:27:45;8.00;99.90
15900;DHT22;8048;50.644;6.184;2023-11-21T08:30:11;8.00;99.90
15900;DHT22;8048;50.644;6.184;2023-11-21T08:32:37;8.10;99.90
15900;DHT22;8048;50.644;6.184;2023-11-21T08:35:03;8.00;99.90
15900;DHT22;8048;50.644;6.184;2023-11-21T08:37:29;8.10;99.90
15900;DHT22;8048;50.644;6.184;2023-11-21T08:39:58;8.10;99.90
15900;DHT22;8048;50.644;6.184;2023-11-21T08:42:25;8.10;99.90
15900;DHT22;8048;50.644;6.184;2023-11-21T08:44:50;8.10;99.90
15900;DHT22;8048;50.644;6.184;2023-11-21T08:47:16;8.10;99.90
15900;DHT22;8048;50.644;6.184;2023-11-21T08:49:42;8.10;99.90
15900;DHT22;8048;50.644;6.184;2023-11-21T08:52:08;8.10;99.90
15900;DHT22;8048;50.644;6.184;2023-11-21T08:54:33;8.20;99.90
15900;DHT22;8048;50.644;6.184;2023-11-21T08:56:59;8.20;99.90
15900;DHT22;8048;50.644;6.184;2023-11-21T08:59:26;8.20;99.90
15900;DHT22;8048;50.644;6.184;2023-11-21T09:01:52;8.20;99.90
15900;DHT22;8048;50.644;6.184;2023-11-21T09:04:17;8.20;99.90
15900;DHT22;8048;50.644;6.184;2023-11-21T09:06:43;8.30;99.90
15900;DHT22;8048;50.644;6.184;2023-11-21T09:09:08;8.30;99.90
15900;DHT22;8048;50.644;6.184;2023-11-21T09:11:36;8.30;99.90
15900;DHT22;8048;50.644;6.184;2023-11-21T09:14:02;8.30;99.90
15900;DHT22;8048;50.644;6.184;2023-11-21T09:16:28;8.40;99.90
15900;DHT22;8048;50.644;6.184;2023-11-21T09:18:54;8.40;99.90
15900;DHT22;8048;50.644;6.184;2023-11-21T09:21:19;8.40;99.90
15900;DHT22;8048;50.644;6.184;2023-11-21T09:23:45;8.30;99.90
15900;DHT22;8048;50.644;6.184;2023-11-21T09:26:11;8.30;99.90
15900;DHT22;8048;50.644;6.184;2023-11-21T09:28:37;8.30;99.90
15900;DHT22;8048;50.644;6.184;2023-11-21T09:31:07;8.30;99.90
15900;DHT22;8048;50.644;6.184;2023-11-21T09:33:34;8.30;99.90
15900;DHT22;8048;50.644;6.184;2023-11-21T09:36:00;8.40;99.90
15900;DHT22;8048;50.644;6.184;2023-11-21T09:38:26;8.40;99.90
15900;DHT22;8048;50.644;6.184;2023-11-21T09:40:54;8.40;99.90
15900;DHT22;8048;50.644;6.184;2023-11-21T09:43:20;8.50;99.90
15900;DHT22;8048;50.644;6.184;2023-11-21T09:45:49;8.50;99.90
15900;DHT22;8048;50.644;6.184;2023-11-21T09:48:20;8.50;99.90
15900;DHT22;8048;50.644;6.184;2023-11-21T09:50:47;8.50;99.90
15900;DHT22;8048;50.644;6.184;2023-11-21T09:53:22;8.60;99.90
15900;DHT22;8048;50.644;6.184;2023-11-21T09:55:51;8.60;99.90
15900;DHT22;8048;50.644;6.184;2023-11-21T09:58:19;8.70;99.90
15900;DHT22;8048;50.644;6.184;2023-11-21T10:00:46;8.70;99.90
15900;DHT22;8048;50.644;6.184;2023-11-21T10:03:13;8.80;99.90
15900;DHT22;8048;50.644;6.184;2023-11-21T10:05:39;8.80;99.90
15900;DHT22;8048;50.644;6.184;2023-11-21T10:08:08;8.80;99.90
15900;DHT22;8048;50.644;6.184;2023-11-21T10:10:36;8.90;99.90
15900;DHT22;8048;50.644;6.184;2023-11-21T10:13:03;8.90;99.90
15900;DHT22;8048;50.644;6.184;2023-11-21T10:15:34;9.00;99.90
15900;DHT22;8048;50.644;6.184;2023-11-21T10:18:03;9.10;99.90
15900;DHT22;8048;50.644;6.184;2023-11-21T10:20:30;9.10;99.90
15900;DHT22;8048;50.644;6.184;2023-11-21T10:22:56;9.10;99.90
15900;DHT22;8048;50.644;6.184;2023-11-21T10:25:22;9.20;99.90
15900;DHT22;8048;50.644;6.184;2023-11-21T10:27:49;9.20;99.90
15900;DHT22;8048;50.644;6.184;2023-11-21T10:30:17;9.30;99.90
15900;DHT22;8048;50.644;6.184;2023-11-21T10:32:43;9.30;99.90
15900;DHT22;8048;50.644;6.184;2023-11-21T10:35:10;9.40;99.90
15900;DHT22;8048;50.644;6.184;2023-11-21T10:37:39;9.40;99.90
15900;DHT22;8048;50.644;6.184;2023-11-21T10:40:09;9.40;99.90
15900;DHT22;8048;50.644;6.184;2023-11-21T10:42:41;9.50;99.90
15900;DHT22;8048;50.644;6.184;2023-11-21T10:45:08;9.60;99.90
15900;DHT22;8048;50.644;6.184;2023-11-21T10:47:44;9.60;99.90
15900;DHT22;8048;50.644;6.184;2023-11-21T10:50:10;9.70;99.90
15900;DHT22;8048;50.644;6.184;2023-11-21T10:52:37;9.70;99.90
15900;DHT22;8048;50.644;6.184;2023-11-21T10:55:19;9.70;99.90
15900;DHT22;8048;50.644;6.184;2023-11-21T10:57:53;9.80;99.90
15900;DHT22;8048;50.644;6.184;2023-11-21T11:00:19;9.90;99.90
15900;DHT22;8048;50.644;6.184;2023-11-21T11:02:52;9.90;99.90
15900;DHT22;8048;50.644;6.184;2023-11-21T11:05:22;10.00;99.90
15900;DHT22;8048;50.644;6.184;2023-11-21T11:07:51;10.10;99.90
15900;DHT22;8048;50.644;6.184;2023-11-21T11:10:22;10.10;99.90
15900;DHT22;8048;50.644;6.184;2023-11-21T11:12:51;10.20;99.90
15900;DHT22;8048;50.644;6.184;2023-11-21T11:15:18;10.10;99.90
15900;DHT22;8048;50.644;6.184;2023-11-21T11:17:45;10.10;99.90
15900;DHT22;8048;50.644;6.184;2023-11-21T11:20:13;10.10;99.90
15900;DHT22;8048;50.644;6.184;2023-11-21T11:22:59;10.10;99.90
15900;DHT22;8048;50.644;6.184;2023-11-21T11:25:47;10.10;99.90
15900;DHT22;8048;50.644;6.184;2023-11-21T11:28:20;10.20;99.90
15900;DHT22;8048;50.644;6.184;2023-11-21T11:33:43;10.20;99.90
15900;DHT22;8048;50.644;6.184;2023-11-21T11:36:13;10.20;99.90
15900;DHT22;8048;50.644;6.184;2023-11-21T11:38:45;10.30;99.90
15900;DHT22;8048;50.644;6.184;2023-11-21T11:41:11;10.30;99.90
15900;DHT22;8048;50.644;6.184;2023-11-21T11:43:37;10.40;99.90
15900;DHT22;8048;50.644;6.184;2023-11-21T11:46:10;10.40;99.90
15900;DHT22;8048;50.644;6.184;2023-11-21T11:48:39;10.40;99.90
15900;DHT22;8048;50.644;6.184;2023-11-21T11:51:12;10.40;99.90
15900;DHT22;8048;50.644;6.184;2023-11-21T11:53:41;10.40;99.90
15900;DHT22;8048;50.644;6.184;2023-11-21T11:56:31;10.50;99.90
15900;DHT22;8048;50.644;6.184;2023-11-21T11:59:03;10.50;99.90
15900;DHT22;8048;50.644;6.184;2023-11-21T12:01:32;10.50;99.90
15900;DHT22;8048;50.644;6.184;2023-11-21T12:07:00;10.40;99.90
15900;DHT22;8048;50.644;6.184;2023-11-21T12:09:28;10.30;99.90
15900;DHT22;8048;50.644;6.184;2023-11-21T12:11:55;10.30;99.90
15900;DHT22;8048;50.644;6.184;2023-11-21T12:14:24;10.30;99.90
15900;DHT22;8048;50.644;6.184;2023-11-21T12:16:50;10.20;99.90
15900;DHT22;8048;50.644;6.184;2023-11-21T12:19:17;10.20;99.90
15900;DHT22;8048;50.644;6.184;2023-11-21T12:21:42;10.20;99.90
15900;DHT22;8048;50.644;6.184;2023-11-21T12:24:09;10.20;99.90
15900;DHT22;8048;50.644;6.184;2023-11-21T12:26:35;10.20;99.90
15900;DHT22;8048;50.644;6.184;2023-11-21T12:29:04;10.30;99.90
15900;DHT22;8048;50.644;6.184;2023-11-21T12:31:30;10.30;99.90
15900;DHT22;8048;50.644;6.184;2023-11-21T12:33:56;10.30;99.90
15900;DHT22;8048;50.644;6.184;2023-11-21T12:36:22;10.30;99.90
15900;DHT22;8048;50.644;6.184;2023-11-21T12:38:48;10.30;99.90
15900;DHT22;8048;50.644;6.184;2023-11-21T12:41:15;10.30;99.90
15900;DHT22;8048;50.644;6.184;2023-11-21T12:43:42;10.50;99.90
15900;DHT22;8048;50.644;6.184;2023-11-21T12:46:10;10.60;99.90
15900;DHT22;8048;50.644;6.184;2023-11-21T12:48:39;10.90;99.90
15900;DHT22;8048;50.644;6.184;2023-11-21T12:51:07;10.90;99.90
15900;DHT22;8048;50.644;6.184;2023-11-21T12:53:35;11.00;99.90
15900;DHT22;8048;50.644;6.184;2023-11-21T12:56:15;11.00;99.90
15900;DHT22;8048;50.644;6.184;2023-11-21T12:58:45;11.00;99.90
15900;DHT22;8048;50.644;6.184;2023-11-21T13:01:16;10.90;99.90
15900;DHT22;8048;50.644;6.184;2023-11-21T13:03:46;10.80;99.90
15900;DHT22;8048;50.644;6.184;2023-11-21T13:06:14;10.80;99.90
15900;DHT22;8048;50.644;6.184;2023-11-21T13:08:40;10.70;99.90
15900;DHT22;8048;50.644;6.184;2023-11-21T13:11:06;10.70;99.90
15900;DHT22;8048;50.644;6.184;2023-11-21T13:13:31;10.60;99.90
15900;DHT22;8048;50.644;6.184;2023-11-21T13:16:00;10.60;99.90
15900;DHT22;8048;50.644;6.184;2023-11-21T13:18:27;10.60;99.90
15900;DHT22;8048;50.644;6.184;2023-11-21T13:20:54;10.60;99.90
15900;DHT22;8048;50.644;6.184;2023-11-21T13:23:20;10.60;99.90
15900;DHT22;8048;50.644;6.184;2023-11-21T13:25:46;10.60;99.90
15900;DHT22;8048;50.644;6.184;2023-11-21T13:28:13;10.60;99.90
15900;DHT22;8048;50.644;6.184;2023-11-21T13:30:41;10.70;99.90
15900;DHT22;8048;50.644;6.184;2023-11-21T13:33:08;10.70;99.90
15900;DHT22;8048;50.644;6.184;2023-11-21T13:35:38;10.70;99.90
15900;DHT22;8048;50.644;6.184;2023-11-21T13:38:11;10.80;99.90
15900;DHT22;8048;50.644;6.184;2023-11-21T13:40:39;10.80;99.90
15900;DHT22;8048;50.644;6.184;2023-11-21T13:43:16;10.70;99.90
15900;DHT22;8048;50.644;6.184;2023-11-21T13:45:43;10.70;99.90
15900;DHT22;8048;50.644;6.184;2023-11-21T13:48:10;10.70;99.90
15900;DHT22;8048;50.644;6.184;2023-11-21T13:50:42;10.70;99.90
15900;DHT22;8048;50.644;6.184;2023-11-21T13:53:21;10.70;99.90
15900;DHT22;8048;50.644;6.184;2023-11-21T13:55:51;10.70;99.90
15900;DHT22;8048;50.644;6.184;2023-11-21T13:58:19;10.70;99.90
15900;DHT22;8048;50.644;6.184;2023-11-21T14:00:49;10.60;99.90
15900;DHT22;8048;50.644;6.184;2023-11-21T14:03:22;10.60;99.90
15900;DHT22;8048;50.644;6.184;2023-11-21T14:05:50;10.60;99.90
15900;DHT22;8048;50.644;6.184;2023-11-21T14:08:22;10.50;99.90
15900;DHT22;8048;50.644;6.184;2023-11-21T14:10:57;10.40;99.90
15900;DHT22;8048;50.644;6.184;2023-11-21T14:13:25;10.40;99.90
15900;DHT22;8048;50.644;6.184;2023-11-21T14:15:51;10.40;99.90
15900;DHT22;8048;50.644;6.184;2023-11-21T14:18:23;10.40;99.90
15900;DHT22;8048;50.644;6.184;2023-11-21T14:20:56;10.40;99.90
15900;DHT22;8048;50.644;6.184;2023-11-21T14:23:21;10.40;99.90
15900;DHT22;8048;50.644;6.184;2023-11-21T14:25:48;10.40;99.90
15900;DHT22;8048;50.644;6.184;2023-11-21T14:28:15;10.40;99.90
15900;DHT22;8048;50.644;6.184;2023-11-21T14:30:41;10.40;99.90
15900;DHT22;8048;50.644;6.184;2023-11-21T14:33:08;10.40;99.90
15900;DHT22;8048;50.644;6.184;2023-11-21T14:35:35;10.40;99.90
15900;DHT22;8048;50.644;6.184;2023-11-21T14:38:01;10.40;99.90
15900;DHT22;8048;50.644;6.184;2023-11-21T14:40:33;10.40;99.90
15900;DHT22;8048;50.644;6.184;2023-11-21T14:43:02;10.40;99.90
15900;DHT22;8048;50.644;6.184;2023-11-21T14:45:31;10.40;99.90
15900;DHT22;8048;50.644;6.184;2023-11-21T14:47:57;10.30;99.90
15900;DHT22;8048;50.644;6.184;2023-11-21T14:50:51;10.30;99.90
15900;DHT22;8048;50.644;6.184;2023-11-21T14:53:28;10.30;99.90
15900;DHT22;8048;50.644;6.184;2023-11-21T14:56:19;10.30;99.90
15900;DHT22;8048;50.644;6.184;2023-11-21T14:58:52;10.20;99.90
15900;DHT22;8048;50.644;6.184;2023-11-21T15:01:18;10.20;99.90
15900;DHT22;8048;50.644;6.184;2023-11-21T15:03:52;10.20;99.90
15900;DHT22;8048;50.644;6.184;2023-11-21T15:06:18;10.20;99.90
15900;DHT22;8048;50.644;6.184;2023-11-21T15:08:49;10.20;99.90
15900;DHT22;8048;50.644;6.184;2023-11-21T15:11:21;10.20;99.90
15900;DHT22;8048;50.644;6.184;2023-11-21T15:13:53;10.20;99.90
15900;DHT22;8048;50.644;6.184;2023-11-21T15:16:19;10.20;99.90
15900;DHT22;8048;50.644;6.184;2023-11-21T15:18:44;10.20;99.90
15900;DHT22;8048;50.644;6.184;2023-11-21T15:21:10;10.20;99.90
15900;DHT22;8048;50.644;6.184;2023-11-21T15:23:37;10.10;99.90
15900;DHT22;8048;50.644;6.184;2023-11-21T15:26:04;10.10;99.90
15900;DHT22;8048;50.644;6.184;2023-11-21T15:28:30;10.10;99.90
15900;DHT22;8048;50.644;6.184;2023-11-21T15:30:57;10.10;99.90
15900;DHT22;8048;50.644;6.184;2023-11-21T15:33:23;10.10;99.90
15900;DHT22;8048;50.644;6.184;2023-11-21T15:35:48;10.00;99.90
15900;DHT22;8048;50.644;6.184;2023-11-21T15:38:14;10.00;99.90
15900;DHT22;8048;50.644;6.184;2023-11-21T15:40:40;9.90;99.90
15900;DHT22;8048;50.644;6.184;2023-11-21T15:43:05;9.90;99.90
15900;DHT22;8048;50.644;6.184;2023-11-21T15:45:32;9.90;99.90
15900;DHT22;8048;50.644;6.184;2023-11-21T15:47:58;9.80;99.90
15900;DHT22;8048;50.644;6.184;2023-11-21T15:50:23;9.90;99.90
15900;DHT22;8048;50.644;6.184;2023-11-21T15:52:50;9.80;99.90
15900;DHT22;8048;50.644;6.184;2023-11-21T15:55:15;9.80;99.90
15900;DHT22;8048;50.644;6.184;2023-11-21T15:57:42;9.80;99.90
15900;DHT22;8048;50.644;6.184;2023-11-21T16:00:08;9.80;99.90
15900;DHT22;8048;50.644;6.184;2023-11-21T16:02:42;9.80;99.90